createdAt,value
2023-04-21T00:02:01.111Z,100355.63
2023-04-21T00:04:29.748Z,100352.84
2023-04-21T00:06:57.729Z,100346.84
2023-04-21T00:09:25.739Z,100346.47
2023-04-21T00:11:53.839Z,100352.47
2023-04-21T00:14:21.786Z,100338.03
2023-04-21T00:16:53.450Z,100342.22
2023-04-21T00:19:21.939Z,100328.31
2023-04-21T00:21:49.823Z,100338.41
2023-04-21T00:24:17.866Z,100332.56
2023-04-21T00:26:46.103Z,100332.03
2023-04-21T00:29:13.995Z,100331.47
2023-04-21T00:31:41.897Z,100329.97
2023-04-21T00:34:10.208Z,100310.25
2023-04-21T00:36:37.986Z,100323.38
2023-04-21T00:39:05.867Z,100330.09
2023-04-21T00:41:36.490Z,100332.84
2023-04-21T00:44:09.437Z,100335.56
2023-04-21T00:46:38.912Z,100330.25
2023-04-21T00:49:08.184Z,100331.41
2023-04-21T00:51:37.560Z,100319.59
2023-04-21T00:54:07.948Z,100332.56
2023-04-21T00:56:37.112Z,100338.22
2023-04-21T00:59:05.514Z,100333.59
2023-04-21T01:01:34.646Z,100309.47
2023-04-21T01:04:04.796Z,100327.69
2023-04-21T01:06:34.529Z,100327.81
2023-04-21T01:09:07.754Z,100323.66
2023-04-21T01:11:37.520Z,100328.47
2023-04-21T01:14:08.913Z,100319.13
2023-04-21T01:16:38.864Z,100324.41
2023-04-21T01:19:06.903Z,100321.63
2023-04-21T01:21:41.903Z,100319.97
2023-04-21T01:24:10.447Z,100330.09
2023-04-21T01:26:38.289Z,100322.69
2023-04-21T01:29:06.299Z,100325.41
2023-04-21T01:31:34.645Z,100311.03
2023-04-21T01:34:05.725Z,100320.22
2023-04-21T01:36:33.886Z,100321.31
2023-04-21T01:39:02.211Z,100320.19
2023-04-21T01:41:31.134Z,100315.75
2023-04-21T01:43:59.126Z,100315.09
2023-04-21T01:46:27.465Z,100319.69
2023-04-21T01:48:55.511Z,100312.91
2023-04-21T01:51:23.355Z,100318.56
2023-04-21T01:53:51.650Z,100313.84
2023-04-21T01:56:19.858Z,100309.38
2023-04-21T01:58:47.749Z,100312.06
2023-04-21T02:01:16.042Z,100309.53
2023-04-21T02:03:44.552Z,100284.47
2023-04-21T02:06:14.420Z,100305.13
2023-04-21T02:08:42.341Z,100309.53
2023-04-21T02:11:10.768Z,100307.16
2023-04-21T02:13:41.098Z,100304.78
2023-04-21T02:16:13.978Z,100306.72
2023-04-21T02:18:44.885Z,100308.94
2023-04-21T02:21:13.441Z,100306.41
2023-04-21T02:23:41.361Z,100307.28
2023-04-21T02:26:09.659Z,100302.41
2023-04-21T02:28:37.911Z,100305.03
2023-04-21T02:31:06.114Z,100298.66
2023-04-21T02:33:34.988Z,100300.72
2023-04-21T02:36:04.403Z,100299.47
2023-04-21T02:38:32.272Z,100304.94
2023-04-21T02:41:00.187Z,100293.78
2023-04-21T02:43:28.530Z,100303.28
2023-04-21T02:45:56.740Z,100302.50
2023-04-21T02:48:24.966Z,100294.53
2023-04-21T02:50:53.730Z,100302.34
2023-04-21T02:53:21.675Z,100294.44
2023-04-21T02:55:49.588Z,100301.13
2023-04-21T02:58:17.809Z,100301.87
2023-04-21T03:00:45.792Z,100308.28
2023-04-21T03:03:15.680Z,100310.31
2023-04-21T03:05:43.947Z,100311.41
2023-04-21T03:08:11.796Z,100310.41
2023-04-21T03:10:40.122Z,100310.41
2023-04-21T03:13:08.322Z,100306.94
2023-04-21T03:15:36.163Z,100308.00
2023-04-21T03:18:04.104Z,100313.16
2023-04-21T03:20:32.375Z,100318.47
2023-04-21T03:23:00.261Z,100320.50
2023-04-21T03:25:28.237Z,100319.97
2023-04-21T03:27:56.754Z,100312.13
2023-04-21T03:30:26.716Z,100319.00
2023-04-21T03:32:56.060Z,100312.56
2023-04-21T03:35:24.515Z,100315.41
2023-04-21T03:37:52.628Z,100304.87
2023-04-21T03:40:21.708Z,100316.72
2023-04-21T03:42:49.912Z,100326.06
2023-04-21T03:45:23.447Z,100307.34
2023-04-21T03:47:56.152Z,100319.50
2023-04-21T03:50:24.152Z,100323.94
2023-04-21T03:52:52.387Z,100310.31
2023-04-21T03:55:20.250Z,100317.69
2023-04-21T03:57:48.082Z,100310.19
2023-04-21T04:00:16.802Z,100312.63
2023-04-21T04:02:46.602Z,100311.31
2023-04-21T04:05:14.674Z,100310.91
2023-04-21T04:07:42.682Z,100314.28
2023-04-21T04:10:11.917Z,100310.59
2023-04-21T04:12:40.024Z,100308.28
2023-04-21T04:15:08.489Z,100312.81
2023-04-21T04:17:36.926Z,100309.50
2023-04-21T04:20:08.261Z,100307.16
2023-04-21T04:22:36.486Z,100314.06
2023-04-21T04:25:05.726Z,100313.22
2023-04-21T04:27:33.694Z,100310.84
2023-04-21T04:30:01.894Z,100310.84
2023-04-21T04:32:33.854Z,100312.72
2023-04-21T04:35:02.845Z,100312.50
2023-04-21T04:37:34.835Z,100313.94
2023-04-21T04:40:06.279Z,100309.62
2023-04-21T04:42:37.147Z,100309.44
2023-04-21T04:45:06.597Z,100302.88
2023-04-21T04:47:38.099Z,100311.44
2023-04-21T04:50:07.054Z,100297.41
2023-04-21T04:52:34.849Z,100295.09
2023-04-21T04:55:02.682Z,100298.19
2023-04-21T04:57:32.368Z,100285.78
2023-04-21T05:00:00.201Z,100279.03
2023-04-21T05:02:28.347Z,100281.56
2023-04-21T05:04:56.921Z,100262.94
2023-04-21T05:07:24.779Z,100266.75
2023-04-21T05:09:52.694Z,100261.31
2023-04-21T05:12:21.021Z,100259.38
2023-04-21T05:14:48.891Z,100261.16
2023-04-21T05:17:16.765Z,100268.56
2023-04-21T05:19:45.135Z,100269.09
2023-04-21T05:22:12.968Z,100263.87
2023-04-21T05:24:42.822Z,100259.34
2023-04-21T05:27:11.170Z,100257.75
2023-04-21T05:29:39.015Z,100246.31
2023-04-21T05:32:07.062Z,100245.53
2023-04-21T05:34:35.779Z,100245.06
2023-04-21T05:37:03.641Z,100250.16
2023-04-21T05:39:31.708Z,100254.09
2023-04-21T05:41:59.984Z,100254.25
2023-04-21T05:44:27.860Z,100255.16
2023-04-21T05:46:56.264Z,100244.91
2023-04-21T05:49:24.406Z,100237.59
2023-04-21T05:51:52.226Z,100239.91
2023-04-21T05:54:20.346Z,100235.97
2023-04-21T05:56:48.878Z,100236.13
2023-04-21T05:59:16.727Z,100224.56
2023-04-21T06:01:44.925Z,100238.16
2023-04-21T06:04:13.295Z,100236.41
2023-04-21T06:06:41.263Z,100248.22
2023-04-21T06:09:09.210Z,100240.72
2023-04-21T06:11:37.563Z,100239.78
2023-04-21T06:14:05.533Z,100237.75
2023-04-21T06:16:34.610Z,100244.91
2023-04-21T06:19:02.967Z,100237.06
2023-04-21T06:21:31.299Z,100234.44
2023-04-21T06:23:59.295Z,100245.84
2023-04-21T06:26:27.518Z,100233.06
2023-04-21T06:28:55.764Z,100235.16
2023-04-21T06:31:23.757Z,100234.34
2023-04-21T06:33:52.198Z,100230.00
2023-04-21T06:36:22.170Z,100242.62
2023-04-21T06:38:50.164Z,100240.47
2023-04-21T06:41:18.507Z,100235.94
2023-04-21T06:43:46.424Z,100239.44
2023-04-21T06:46:14.762Z,100236.31
2023-04-21T06:48:42.998Z,100232.59
2023-04-21T06:51:10.963Z,100228.44
2023-04-21T06:53:39.156Z,100230.00
2023-04-21T06:56:07.620Z,100231.62
2023-04-21T06:58:35.732Z,100223.13
2023-04-21T07:01:03.700Z,100226.87
2023-04-21T07:03:32.011Z,100229.31
2023-04-21T07:06:00.004Z,100219.41
2023-04-21T07:08:28.043Z,100219.94
2023-04-21T07:10:56.257Z,100210.09
2023-04-21T07:13:24.531Z,100202.56
2023-04-21T07:15:55.365Z,100206.91
2023-04-21T07:18:23.660Z,100212.16
2023-04-21T07:20:51.630Z,100208.03
2023-04-21T07:23:19.644Z,100204.62
2023-04-21T07:25:47.966Z,100197.44
2023-04-21T07:28:16.419Z,100197.03
2023-04-21T07:30:44.092Z,100185.25
2023-04-21T07:33:12.710Z,100174.69
2023-04-21T07:35:40.666Z,100185.97
2023-04-21T07:38:08.599Z,100175.09
2023-04-21T07:40:36.872Z,100186.09
2023-04-21T07:43:07.649Z,100187.28
2023-04-21T07:45:35.641Z,100182.44
2023-04-21T07:48:06.895Z,100178.00
2023-04-21T07:50:37.874Z,100168.19
2023-04-21T07:53:06.225Z,100162.78
2023-04-21T07:55:34.722Z,100153.75
2023-04-21T07:58:02.915Z,100171.41
2023-04-21T08:00:31.680Z,100150.84
2023-04-21T08:03:00.181Z,100153.81
2023-04-21T08:05:32.103Z,100150.16
2023-04-21T08:08:06.303Z,100151.59
2023-04-21T08:10:35.952Z,100133.72
2023-04-21T08:13:06.667Z,100139.53
2023-04-21T08:15:35.297Z,100139.16
2023-04-21T08:18:03.482Z,100125.47
2023-04-21T08:20:31.961Z,100127.88
2023-04-21T08:23:00.498Z,100134.91
2023-04-21T08:25:28.793Z,100137.50
2023-04-21T08:27:57.171Z,100138.72
2023-04-21T08:30:28.412Z,100137.56
2023-04-21T08:32:56.340Z,100137.09
2023-04-21T08:35:25.476Z,100128.28
2023-04-21T08:37:53.564Z,100130.25
2023-04-21T08:40:21.771Z,100126.94
2023-04-21T08:42:49.924Z,100129.81
2023-04-21T08:45:17.847Z,100132.75
2023-04-21T08:47:47.468Z,100119.84
2023-04-21T08:50:16.387Z,100103.62
2023-04-21T08:52:44.473Z,100093.00
2023-04-21T08:55:13.882Z,100109.75
2023-04-21T08:57:42.912Z,100100.91
2023-04-21T09:00:11.256Z,100093.56
2023-04-21T09:03:02.284Z,100107.31
2023-04-21T09:05:33.701Z,100089.78
2023-04-21T09:08:13.228Z,100081.37
2023-04-21T09:10:46.780Z,100075.59
2023-04-21T09:13:15.654Z,100070.00
2023-04-21T09:15:47.217Z,100074.44
2023-04-21T09:18:17.988Z,100085.47
2023-04-21T09:20:48.930Z,100079.22
2023-04-21T09:23:17.946Z,100067.56
2023-04-21T09:25:46.537Z,100070.50
2023-04-21T09:28:15.732Z,100067.59
2023-04-21T09:30:44.102Z,100058.97
2023-04-21T09:33:28.012Z,100071.41
2023-04-21T09:36:21.522Z,100063.50
2023-04-21T09:41:30.818Z,100046.41
2023-04-21T09:44:05.773Z,100040.31
2023-04-21T09:46:36.401Z,100033.87
2023-04-21T09:49:05.680Z,100042.75
2023-04-21T09:54:28.370Z,100026.97
2023-04-21T09:57:04.771Z,100029.34
2023-04-21T09:59:37.107Z,100010.72
2023-04-21T10:02:13.547Z,100010.13
2023-04-21T10:04:43.894Z,100026.94
2023-04-21T10:07:13.042Z,100021.47
2023-04-21T10:09:48.071Z,100013.34
2023-04-21T10:12:18.231Z,100002.87
2023-04-21T10:14:46.241Z,100013.72
2023-04-21T10:17:17.824Z,99993.72
2023-04-21T10:19:57.654Z,99999.06
2023-04-21T10:22:35.744Z,99997.16
2023-04-21T10:25:14.693Z,100002.22
2023-04-21T10:27:43.667Z,100004.69
2023-04-21T10:30:30.247Z,100011.44
2023-04-21T10:33:07.491Z,100010.78
2023-04-21T10:36:01.852Z,100002.97
2023-04-21T10:38:44.068Z,99984.13
2023-04-21T10:41:34.937Z,99987.69
2023-04-21T10:44:14.626Z,99970.16
2023-04-21T10:46:48.582Z,99955.84
2023-04-21T10:49:30.870Z,99982.91
2023-04-21T10:51:59.292Z,99979.81
2023-04-21T10:54:28.860Z,99981.88
2023-04-21T10:56:59.007Z,99961.72
2023-04-21T10:59:27.650Z,99959.41
2023-04-21T11:01:56.252Z,99955.03
2023-04-21T11:04:24.866Z,99952.53
2023-04-21T11:07:13.594Z,99961.56
2023-04-21T11:09:43.024Z,99956.09
2023-04-21T11:12:14.250Z,99953.63
2023-04-21T11:14:44.100Z,99956.75
2023-04-21T11:17:14.087Z,99943.25
2023-04-21T11:19:42.869Z,99946.41
2023-04-21T11:22:10.635Z,99926.03
2023-04-21T11:24:44.640Z,99931.44
2023-04-21T11:27:14.406Z,99930.34
2023-04-21T11:29:43.339Z,99927.31
2023-04-21T11:32:12.521Z,99924.28
2023-04-21T11:34:40.851Z,99932.50
2023-04-21T11:37:10.372Z,99925.97
2023-04-21T11:39:41.844Z,99916.09
2023-04-21T11:42:12.166Z,99903.81
2023-04-21T11:44:43.765Z,99920.69
2023-04-21T11:47:27.256Z,99921.41
2023-04-21T11:49:57.066Z,99911.94
2023-04-21T11:52:31.228Z,99894.28
2023-04-21T11:55:20.242Z,99899.03
2023-04-21T11:57:51.489Z,99913.16
2023-04-21T12:00:20.454Z,99915.13
2023-04-21T12:02:57.882Z,99909.09
2023-04-21T12:05:26.318Z,99905.78
2023-04-21T12:07:56.694Z,99905.44
2023-04-21T12:10:24.868Z,99903.91
2023-04-21T12:12:52.814Z,99892.25
2023-04-21T12:15:23.462Z,99887.37
2023-04-21T12:17:53.529Z,99885.28
2023-04-21T12:20:26.813Z,99874.78
2023-04-21T12:22:55.202Z,99875.56
2023-04-21T12:25:23.640Z,99871.53
2023-04-21T12:27:59.715Z,99877.88
2023-04-21T12:30:28.116Z,99878.91
2023-04-21T12:32:56.309Z,99883.34
2023-04-21T12:35:27.989Z,99873.50
2023-04-21T12:37:56.283Z,99874.66
2023-04-21T12:40:24.009Z,99872.34
2023-04-21T12:42:52.558Z,99864.09
2023-04-21T12:45:20.848Z,99847.31
2023-04-21T12:47:48.866Z,99840.09
2023-04-21T12:50:16.752Z,99846.84
2023-04-21T12:52:45.029Z,99831.13
2023-04-21T12:55:13.885Z,99836.66
2023-04-21T12:57:41.806Z,99837.22
2023-04-21T13:00:12.659Z,99835.66
2023-04-21T13:02:40.944Z,99832.16
2023-04-21T13:05:10.550Z,99836.84
2023-04-21T13:07:39.377Z,99830.59
2023-04-21T13:10:08.336Z,99834.78
2023-04-21T13:12:36.330Z,99830.16
2023-04-21T13:15:05.393Z,99824.00
2023-04-21T13:17:34.776Z,99824.91
2023-04-21T13:20:05.134Z,99811.44
2023-04-21T13:22:34.168Z,99820.03
2023-04-21T13:25:02.251Z,99812.19
2023-04-21T13:27:33.792Z,99817.34
2023-04-21T13:30:02.289Z,99811.37
2023-04-21T13:32:32.545Z,99810.09
2023-04-21T13:35:00.585Z,99795.59
2023-04-21T13:37:28.736Z,99797.53
2023-04-21T13:39:56.842Z,99811.53
2023-04-21T13:42:24.801Z,99811.94
2023-04-21T13:44:53.375Z,99799.62
2023-04-21T13:47:21.431Z,99807.97
2023-04-21T13:49:50.461Z,99809.19
2023-04-21T13:52:18.760Z,99799.09
2023-04-21T13:54:47.399Z,99802.25
2023-04-21T13:57:19.576Z,99789.84
2023-04-21T13:59:48.536Z,99785.31
2023-04-21T14:02:16.887Z,99781.88
2023-04-21T14:04:47.909Z,99787.87
2023-04-21T14:07:18.405Z,99786.69
2023-04-21T14:09:52.020Z,99788.53
2023-04-21T14:12:20.273Z,99786.41
2023-04-21T14:14:49.049Z,99795.13
2023-04-21T14:17:17.620Z,99799.41
2023-04-21T14:19:46.037Z,99797.13
2023-04-21T14:22:14.689Z,99802.72
2023-04-21T14:24:42.875Z,99796.59
2023-04-21T14:27:11.407Z,99793.28
2023-04-21T14:29:39.985Z,99790.56
2023-04-21T14:32:08.774Z,99787.97
2023-04-21T14:34:37.206Z,99787.63
2023-04-21T14:37:06.096Z,99792.53
2023-04-21T14:39:35.046Z,99797.50
2023-04-21T14:42:03.567Z,99799.19
2023-04-21T14:44:32.088Z,99793.66
2023-04-21T14:47:09.204Z,99795.72
2023-04-21T14:49:39.693Z,99804.41
2023-04-21T14:52:10.032Z,99793.78
2023-04-21T14:54:39.289Z,99791.53
2023-04-21T14:57:19.661Z,99786.66
2023-04-21T14:59:52.910Z,99795.16
2023-04-21T15:02:21.915Z,99788.25
2023-04-21T15:04:50.974Z,99797.56
2023-04-21T15:07:23.914Z,99788.47
2023-04-21T15:09:53.744Z,99784.41
2023-04-21T15:12:21.964Z,99789.69
2023-04-21T15:14:50.318Z,99784.84
2023-04-21T15:17:19.889Z,99788.28
2023-04-21T15:19:47.965Z,99798.72
2023-04-21T15:22:16.471Z,99799.41
2023-04-21T15:24:44.853Z,99793.34
2023-04-21T15:27:13.076Z,99797.09
2023-04-21T15:29:41.503Z,99801.22
2023-04-21T15:32:10.934Z,99805.19
2023-04-21T15:34:38.910Z,99807.00
2023-04-21T15:37:06.783Z,99806.47
2023-04-21T15:39:35.820Z,99798.81
2023-04-21T15:42:04.751Z,99801.47
2023-04-21T15:44:34.555Z,99793.47
2023-04-21T15:47:04.076Z,99808.59
2023-04-21T15:49:33.118Z,99806.09
2023-04-21T15:52:11.691Z,99812.31
2023-04-21T15:54:40.426Z,99816.59
2023-04-21T15:57:08.409Z,99808.78
2023-04-21T15:59:36.829Z,99806.41
2023-04-21T16:02:05.389Z,99808.25
2023-04-21T16:04:33.972Z,99796.63
2023-04-21T16:07:02.038Z,99797.94
2023-04-21T16:09:30.071Z,99802.09
2023-04-21T16:11:58.329Z,99798.81
2023-04-21T16:14:29.047Z,99803.00
2023-04-21T16:17:02.515Z,99802.81
2023-04-21T16:19:31.183Z,99796.09
2023-04-21T16:21:59.518Z,99803.28
2023-04-21T16:24:28.252Z,99794.41
2023-04-21T16:26:57.954Z,99801.06
2023-04-21T16:29:26.133Z,99803.28
2023-04-21T16:31:57.484Z,99797.16
2023-04-21T16:34:26.343Z,99804.94
2023-04-21T16:36:55.354Z,99803.00
2023-04-21T16:39:23.970Z,99786.19
2023-04-21T16:41:52.193Z,99796.31
2023-04-21T16:44:21.004Z,99808.53
2023-04-21T16:46:49.239Z,99801.31
2023-04-21T16:49:17.420Z,99802.16
2023-04-21T16:51:46.607Z,99801.31
2023-04-21T16:54:14.856Z,99798.09
2023-04-21T16:56:42.899Z,99803.63
2023-04-21T16:59:11.489Z,99809.75
2023-04-21T17:01:39.466Z,99806.50
2023-04-21T17:04:07.942Z,99804.06
2023-04-21T17:06:36.448Z,99804.72
2023-04-21T17:09:04.577Z,99811.53
2023-04-21T17:11:32.908Z,99806.84
2023-04-21T17:14:01.464Z,99811.31
2023-04-21T17:16:29.395Z,99808.97
2023-04-21T17:18:57.395Z,99796.13
2023-04-21T17:21:25.518Z,99800.22
2023-04-21T17:23:53.266Z,99811.81
2023-04-21T17:26:22.589Z,99806.59
2023-04-21T17:28:51.355Z,99801.16
2023-04-21T17:31:19.326Z,99809.72
2023-04-21T17:33:47.330Z,99805.63
2023-04-21T17:36:17.151Z,99792.56
2023-04-21T17:38:44.902Z,99808.31
2023-04-21T17:41:12.719Z,99803.97
2023-04-21T17:43:41.019Z,99807.75
2023-04-21T17:46:09.023Z,99808.56
2023-04-21T17:48:38.562Z,99811.47
2023-04-21T17:51:10.002Z,99803.78
2023-04-21T17:53:37.988Z,99803.03
2023-04-21T17:56:06.930Z,99811.59
2023-04-21T17:58:35.850Z,99802.03
2023-04-21T18:01:03.957Z,99802.53
2023-04-21T18:03:33.150Z,99794.81
2023-04-21T18:06:02.128Z,99797.66
2023-04-21T18:08:30.156Z,99797.28
2023-04-21T18:10:58.670Z,99793.31
2023-04-21T18:13:26.770Z,99791.38
2023-04-21T18:15:54.820Z,99796.38
2023-04-21T18:18:23.165Z,99790.81
2023-04-21T18:20:51.122Z,99792.31
2023-04-21T18:23:19.347Z,99792.97
2023-04-21T18:25:48.127Z,99781.19
2023-04-21T18:28:16.040Z,99783.22
2023-04-21T18:30:43.986Z,99786.31
2023-04-21T18:33:12.492Z,99790.38
2023-04-21T18:35:42.202Z,99783.44
2023-04-21T18:38:12.131Z,99783.47
2023-04-21T18:40:41.427Z,99781.69
2023-04-21T18:43:11.007Z,99779.53
2023-04-21T18:45:39.153Z,99778.94
2023-04-21T18:48:08.041Z,99785.97
2023-04-21T18:50:40.904Z,99778.94
2023-04-21T18:53:09.700Z,99779.28
2023-04-21T18:55:38.138Z,99772.84
2023-04-21T18:58:06.881Z,99778.94
2023-04-21T19:00:39.492Z,99776.91
2023-04-21T19:03:08.547Z,99777.72
2023-04-21T19:05:39.224Z,99775.69
2023-04-21T19:08:11.003Z,99777.16
2023-04-21T19:10:40.669Z,99780.34
2023-04-21T19:13:08.745Z,99782.75
2023-04-21T19:15:37.005Z,99787.50
2023-04-21T19:18:05.610Z,99788.69
2023-04-21T19:20:35.957Z,99780.34
2023-04-21T19:23:04.306Z,99780.06
2023-04-21T19:25:33.537Z,99781.53
2023-04-21T19:28:02.202Z,99782.50
2023-04-21T19:30:30.458Z,99777.72
2023-04-21T19:32:58.762Z,99772.28
2023-04-21T19:35:27.361Z,99776.09
2023-04-21T19:37:55.804Z,99782.94
2023-04-21T19:40:23.962Z,99769.81
2023-04-21T19:42:51.934Z,99771.19
2023-04-21T19:45:19.858Z,99755.31
2023-04-21T19:47:48.090Z,99774.84
2023-04-21T19:50:16.620Z,99772.03
2023-04-21T19:52:46.181Z,99761.94
2023-04-21T19:55:15.058Z,99758.28
2023-04-21T19:57:42.835Z,99766.09
2023-04-21T20:00:11.694Z,99765.50
2023-04-21T20:02:41.133Z,99766.66
2023-04-21T20:05:09.703Z,99758.56
2023-04-21T20:07:38.146Z,99758.41
2023-04-21T20:10:07.669Z,99763.13
2023-04-21T20:12:36.058Z,99753.03
2023-04-21T20:15:03.977Z,99755.16
2023-04-21T20:17:33.424Z,99755.16
2023-04-21T20:20:01.789Z,99755.22
2023-04-21T20:22:32.875Z,99759.28
2023-04-21T20:25:01.882Z,99757.22
2023-04-21T20:27:31.573Z,99758.16
2023-04-21T20:29:59.864Z,99761.03
2023-04-21T20:32:28.194Z,99764.97
2023-04-21T20:34:56.581Z,99760.16
2023-04-21T20:37:24.769Z,99758.13
2023-04-21T20:39:53.035Z,99764.28
2023-04-21T20:42:22.308Z,99757.78
2023-04-21T20:44:50.416Z,99754.66
2023-04-21T20:47:18.612Z,99765.00
2023-04-21T20:49:47.763Z,99759.34
2023-04-21T20:52:16.290Z,99761.72
2023-04-21T20:54:44.598Z,99767.44
2023-04-21T20:57:12.741Z,99753.22
2023-04-21T20:59:40.621Z,99771.00
2023-04-21T21:02:09.456Z,99760.56
2023-04-21T21:04:37.454Z,99766.16
2023-04-21T21:07:05.552Z,99760.44
2023-04-21T21:09:33.982Z,99764.84
2023-04-21T21:12:02.672Z,99766.44
2023-04-21T21:14:31.015Z,99757.00
2023-04-21T21:16:59.439Z,99759.19
2023-04-21T21:19:27.568Z,99768.00
2023-04-21T21:21:55.493Z,99758.03
2023-04-21T21:24:25.236Z,99762.78
2023-04-21T21:26:53.223Z,99761.69
2023-04-21T21:29:21.168Z,99767.06
2023-04-21T21:31:49.725Z,99759.63
2023-04-21T21:34:17.510Z,99761.62
2023-04-21T21:36:45.674Z,99757.84
2023-04-21T21:39:14.124Z,99763.28
2023-04-21T21:41:41.987Z,99751.56
2023-04-21T21:44:10.743Z,99755.16
2023-04-21T21:46:39.140Z,99760.56
2023-04-21T21:49:07.153Z,99756.06
2023-04-21T21:51:34.914Z,99755.47
2023-04-21T21:54:03.145Z,99759.97
2023-04-21T21:56:30.999Z,99758.34
2023-04-21T22:01:45.631Z,99760.44
2023-04-21T22:04:14.104Z,99749.69
2023-04-21T22:06:42.749Z,99752.50
2023-04-21T22:09:10.655Z,99745.69
2023-04-21T22:11:38.839Z,99759.91
2023-04-21T22:14:21.203Z,99753.09
2023-04-21T22:16:53.436Z,99760.53
2023-04-21T22:19:21.502Z,99755.25
2023-04-21T22:21:49.388Z,99760.62
2023-04-21T22:24:18.143Z,99753.00
2023-04-21T22:26:46.420Z,99753.59
2023-04-21T22:29:14.342Z,99756.44
2023-04-21T22:31:42.615Z,99753.16
2023-04-21T22:34:10.652Z,99755.50
2023-04-21T22:36:38.500Z,99760.66
2023-04-21T22:39:07.480Z,99734.44
2023-04-21T22:41:35.369Z,99753.66
2023-04-21T22:44:03.235Z,99741.94
2023-04-21T22:46:33.949Z,99741.56
2023-04-21T22:49:03.499Z,99749.16
2023-04-21T22:51:32.869Z,99742.59
2023-04-21T22:54:00.994Z,99740.72
2023-04-21T22:56:30.433Z,99752.88
2023-04-21T22:58:58.847Z,99741.59
2023-04-21T23:01:26.700Z,99737.59
2023-04-21T23:03:54.665Z,99742.69
2023-04-21T23:06:22.851Z,99732.91
2023-04-21T23:08:50.795Z,99702.16
2023-04-21T23:11:19.658Z,99735.16
2023-04-21T23:13:48.031Z,99735.38
2023-04-21T23:16:15.978Z,99738.72
2023-04-21T23:18:43.895Z,99729.78
2023-04-21T23:21:12.218Z,99727.13
2023-04-21T23:23:40.109Z,99730.81
2023-04-21T23:26:07.855Z,99735.47
2023-04-21T23:28:36.132Z,99741.69
2023-04-21T23:31:04.050Z,99731.63
2023-04-21T23:33:32.044Z,99720.53
2023-04-21T23:36:00.435Z,99729.63
2023-04-21T23:38:28.244Z,99728.84
2023-04-21T23:40:56.187Z,99730.59
2023-04-21T23:43:24.526Z,99733.28
2023-04-21T23:45:52.291Z,99729.94
2023-04-21T23:48:20.192Z,99730.56
2023-04-21T23:50:49.073Z,99723.78
2023-04-21T23:53:17.005Z,99722.94
2023-04-21T23:55:46.391Z,99712.94
2023-04-21T23:58:14.729Z,99737.84
